Time;durP1;ratioP1;P1;durP2;ratioP2;P2;SDS_P1;SDS_P2;PMS_P1;PMS_P2;Temp;Humidity;BMP_temperature;BMP_pressure;BME280_temperature;BME280_humidity;BME280_pressure;Samples;Min_cycle;Max_cycle;Signal;HPM_P1;HPM_P2
2023/07/31 00:02:00;;;;;;;1999.90;999.90;;;;;;;;;;6739524;88;20643;-82
2023/07/31 00:12:01;;;;;;;1999.90;999.90;;;;;;;;;;6760031;88;20641;-81
2023/07/31 00:22:02;;;;;;;1999.90;999.90;;;;;;;;;;6761061;88;20302;-82
2023/07/31 00:32:03;;;;;;;1999.90;999.90;;;;;;;;;;6755895;88;20179;-83
2023/07/31 00:42:05;;;;;;;1999.90;999.90;;;;;;;;;;6756749;88;20201;-82
2023/07/31 00:52:06;;;;;;;1999.90;999.90;;;;;;;;;;6756496;88;20568;-83
2023/07/31 01:02:07;;;;;;;1999.90;999.90;;;;;;;;;;6762942;88;20212;-81
2023/07/31 01:12:09;;;;;;;1999.90;999.90;;;;;;;;;;6755001;88;20209;-82
2023/07/31 01:22:10;;;;;;;1999.90;999.90;;;;;;;;;;6756493;88;20602;-82
2023/07/31 01:32:12;;;;;;;1999.90;999.90;;;;;;;;;;6758697;88;20200;-81
2023/07/31 01:42:14;;;;;;;1999.90;999.90;;;;;;;;;;6758600;88;20756;-81
2023/07/31 01:52:15;;;;;;;1999.90;999.90;;;;;;;;;;6760148;88;20196;-81
2023/07/31 02:02:16;;;;;;;1999.90;999.90;;;;;;;;;;6760204;88;20675;-81
2023/07/31 02:12:18;;;;;;;1999.90;999.90;;;;;;;;;;6761869;88;20221;-81
2023/07/31 02:22:19;;;;;;;1999.90;999.90;;;;;;;;;;6763146;88;20187;-81
2023/07/31 02:32:20;;;;;;;1999.90;999.90;;;;;;;;;;6762038;88;20192;-80
2023/07/31 02:42:21;;;;;;;1999.90;999.90;;;;;;;;;;6761468;88;20236;-82
2023/07/31 02:52:22;;;;;;;1999.90;999.90;;;;;;;;;;6757390;88;20227;-80
2023/07/31 03:02:23;;;;;;;1999.90;999.90;;;;;;;;;;6762917;88;20700;-81
2023/07/31 03:12:24;;;;;;;1999.90;999.90;;;;;;;;;;6762581;88;20192;-81
2023/07/31 03:22:25;;;;;;;1999.90;999.90;;;;;;;;;;6762718;88;20302;-81
2023/07/31 03:32:26;;;;;;;1999.90;999.90;;;;;;;;;;6762585;88;20196;-80
2023/07/31 03:42:27;;;;;;;1999.90;999.90;;;;;;;;;;6762094;88;20183;-81
2023/07/31 03:52:30;;;;;;;1999.90;999.90;;;;;;;;;;6762265;88;20246;-81
2023/07/31 04:02:31;;;;;;;1999.90;999.90;;;;;;;;;;6766082;88;20198;-80
2023/07/31 04:12:32;;;;;;;1999.90;999.90;;;;;;;;;;6765288;88;20199;-80
2023/07/31 04:22:33;;;;;;;1999.90;999.90;;;;;;;;;;6765235;88;20192;-80
2023/07/31 04:32:35;;;;;;;1999.90;999.90;;;;;;;;;;6761422;88;20200;-80
2023/07/31 04:42:36;;;;;;;1999.90;999.90;;;;;;;;;;6761486;88;20632;-81
2023/07/31 04:52:37;;;;;;;1999.90;999.90;;;;;;;;;;6760938;88;20222;-81
2023/07/31 05:02:38;;;;;;;1999.90;999.90;;;;;;;;;;6756286;88;20962;-81
2023/07/31 05:12:39;;;;;;;1999.90;999.90;;;;;;;;;;6759400;88;20718;-82
2023/07/31 05:22:40;;;;;;;1999.90;999.90;;;;;;;;;;6761376;88;20199;-82
2023/07/31 05:32:41;;;;;;;1999.90;999.90;;;;;;;;;;6763807;88;20608;-82
2023/07/31 05:42:42;;;;;;;1999.90;999.90;;;;;;;;;;6760597;88;20679;-81
2023/07/31 05:52:43;;;;;;;1999.90;999.90;;;;;;;;;;6755928;88;20190;-80
2023/07/31 06:02:44;;;;;;;1999.90;999.90;;;;;;;;;;6761881;88;20188;-81
2023/07/31 06:12:45;;;;;;;1999.90;999.90;;;;;;;;;;6761986;88;20198;-82
2023/07/31 06:22:46;;;;;;;1999.90;999.90;;;;;;;;;;6760043;88;20679;-80
2023/07/31 06:32:47;;;;;;;1999.90;999.90;;;;;;;;;;6747801;88;20197;-81
2023/07/31 06:42:48;;;;;;;1999.90;999.90;;;;;;;;;;6745528;88;20786;-80
2023/07/31 06:52:49;;;;;;;1999.90;999.90;;;;;;;;;;6731821;88;20702;-80
2023/07/31 07:02:50;;;;;;;1999.90;999.90;;;;;;;;;;6734763;88;20209;-80
2023/07/31 07:12:51;;;;;;;1999.90;999.90;;;;;;;;;;6736635;88;20193;-82
2023/07/31 07:22:52;;;;;;;1999.90;999.90;;;;;;;;;;6744952;88;20680;-79
2023/07/31 07:32:53;;;;;;;1999.90;999.90;;;;;;;;;;6730461;77;20218;-77
2023/07/31 07:42:54;;;;;;;1999.90;999.90;;;;;;;;;;6704305;88;20625;-77
2023/07/31 07:52:55;;;;;;;1999.90;999.90;;;;;;;;;;6701305;88;20211;-77
2023/07/31 08:02:58;;;;;;;1999.90;999.90;;;;;;;;;;6699756;88;20190;-77
2023/07/31 08:12:59;;;;;;;1999.90;999.90;;;;;;;;;;6701199;88;20289;-77
2023/07/31 08:23:00;;;;;;;1999.90;999.90;;;;;;;;;;6703236;88;20318;-77
2023/07/31 08:33:01;;;;;;;1999.90;999.90;;;;;;;;;;6697858;88;20261;-77
2023/07/31 08:43:02;;;;;;;1999.90;999.90;;;;;;;;;;6696570;88;20662;-77
2023/07/31 08:53:03;;;;;;;1999.90;999.90;;;;;;;;;;6697300;88;20229;-77
2023/07/31 09:03:09;;;;;;;1999.90;999.90;;;;;;;;;;6697411;88;20228;-77
2023/07/31 09:13:10;;;;;;;1999.90;999.90;;;;;;;;;;6696701;88;20286;-77
2023/07/31 09:23:13;;;;;;;1999.90;999.90;;;;;;;;;;6696936;88;20690;-78
2023/07/31 09:33:14;;;;;;;1999.90;999.90;;;;;;;;;;6690564;88;20207;-77
2023/07/31 09:43:22;;;;;;;1999.90;999.90;;;;;;;;;;6683980;88;20175;-76
2023/07/31 09:53:30;;;;;;;1999.90;999.90;;;;;;;;;;6688128;88;20245;-77
2023/07/31 10:03:32;;;;;;;1999.90;999.90;;;;;;;;;;6682463;88;20183;-76
2023/07/31 10:13:34;;;;;;;1999.90;999.90;;;;;;;;;;6679422;88;20183;-76
2023/07/31 10:23:35;;;;;;;1999.90;999.90;;;;;;;;;;6677531;88;20187;-76
2023/07/31 10:33:36;;;;;;;1999.90;999.90;;;;;;;;;;6691456;88;20268;-77
2023/07/31 10:43:38;;;;;;;1999.90;999.90;;;;;;;;;;6695039;88;20645;-77
2023/07/31 10:53:40;;;;;;;1999.90;999.90;;;;;;;;;;6694558;88;20626;-77
2023/07/31 11:03:46;;;;;;;1999.90;999.90;;;;;;;;;;6694270;88;20257;-77
2023/07/31 11:13:51;;;;;;;1999.90;999.90;;;;;;;;;;6695099;88;20284;-78
2023/07/31 11:23:54;;;;;;;1999.90;999.90;;;;;;;;;;6701018;88;20186;-78
2023/07/31 11:34:07;;;;;;;1999.90;999.90;;;;;;;;;;6704802;88;20696;-77
2023/07/31 11:44:08;;;;;;;1999.90;999.90;;;;;;;;;;6696558;88;20646;-78
2023/07/31 11:54:11;;;;;;;1999.90;999.90;;;;;;;;;;6700031;88;20220;-78
2023/07/31 12:04:12;;;;;;;1999.90;999.90;;;;;;;;;;6697258;88;20204;-77
2023/07/31 12:14:24;;;;;;;1999.90;999.90;;;;;;;;;;6699805;88;20210;-77
2023/07/31 12:24:26;;;;;;;1999.90;999.90;;;;;;;;;;6703670;88;20170;-78
2023/07/31 12:34:27;;;;;;;1999.90;999.90;;;;;;;;;;6701888;88;20290;-78
2023/07/31 12:44:28;;;;;;;1999.90;999.90;;;;;;;;;;6701075;88;20325;-78
2023/07/31 12:54:29;;;;;;;1999.90;999.90;;;;;;;;;;6702210;88;20878;-79
2023/07/31 13:04:30;;;;;;;1999.90;999.90;;;;;;;;;;6704757;88;20372;-78
2023/07/31 13:14:31;;;;;;;1999.90;999.90;;;;;;;;;;6701696;88;20253;-78
2023/07/31 13:24:32;;;;;;;1999.90;999.90;;;;;;;;;;6701964;88;20271;-79
2023/07/31 13:45:15;;;;;;;1999.90;999.90;;;;;;;;;;6708651;88;20213;-80
2023/07/31 13:55:16;;;;;;;1999.90;999.90;;;;;;;;;;6689490;89;20188;-79
2023/07/31 14:05:17;;;;;;;1999.90;999.90;;;;;;;;;;6678686;89;20219;-79
2023/07/31 14:15:18;;;;;;;1999.90;999.90;;;;;;;;;;6661742;89;20444;-80
2023/07/31 14:25:19;;;;;;;1999.90;999.90;;;;;;;;;;6691930;89;20195;-81
2023/07/31 14:35:20;;;;;;;1999.90;999.90;;;;;;;;;;6696026;89;20171;-80
2023/07/31 14:45:21;;;;;;;1999.90;999.90;;;;;;;;;;6694222;89;20179;-79
2023/07/31 14:55:22;;;;;;;1999.90;999.90;;;;;;;;;;6701905;88;20202;-79
2023/07/31 15:05:23;;;;;;;1999.90;999.90;;;;;;;;;;6699897;88;20160;-81
2023/07/31 15:15:25;;;;;;;1999.90;999.90;;;;;;;;;;6699061;89;20202;-80
2023/07/31 15:25:26;;;;;;;1999.90;999.90;;;;;;;;;;6697716;89;20635;-79
2023/07/31 15:35:26;;;;;;;1999.90;999.90;;;;;;;;;;6705973;88;20206;-81
2023/07/31 15:45:28;;;;;;;1999.90;999.90;;;;;;;;;;6698486;89;20190;-80
2023/07/31 15:55:29;;;;;;;1999.90;999.90;;;;;;;;;;6698032;89;20517;-81
2023/07/31 16:05:30;;;;;;;1999.90;999.90;;;;;;;;;;6697977;89;20235;-80
2023/07/31 16:15:31;;;;;;;1999.90;999.90;;;;;;;;;;6706820;88;20237;-79
2023/07/31 16:25:32;;;;;;;1999.90;999.90;;;;;;;;;;6684944;89;20333;-81
2023/07/31 16:35:33;;;;;;;1999.90;999.90;;;;;;;;;;6683030;89;20191;-81
2023/07/31 16:45:33;;;;;;;1999.90;999.90;;;;;;;;;;6688398;89;20325;-80
2023/07/31 16:55:36;;;;;;;1999.90;999.90;;;;;;;;;;6684879;89;20216;-79
2023/07/31 17:05:37;;;;;;;1999.90;999.90;;;;;;;;;;6679968;88;20207;-78
2023/07/31 17:15:38;;;;;;;1999.90;999.90;;;;;;;;;;6677500;89;20215;-79
2023/07/31 17:25:39;;;;;;;1999.90;999.90;;;;;;;;;;6682875;89;20254;-77
2023/07/31 17:35:40;;;;;;;1999.90;999.90;;;;;;;;;;6683304;88;20200;-78
2023/07/31 17:45:41;;;;;;;1999.90;999.90;;;;;;;;;;6675860;88;20241;-79
2023/07/31 17:55:42;;;;;;;1999.90;999.90;;;;;;;;;;6676065;89;20191;-78
2023/07/31 18:05:43;;;;;;;1999.90;999.90;;;;;;;;;;6676293;89;20211;-78
2023/07/31 18:15:45;;;;;;;1999.90;999.90;;;;;;;;;;6671448;89;20307;-78
2023/07/31 18:25:47;;;;;;;1999.90;999.90;;;;;;;;;;6674847;88;20317;-78
2023/07/31 18:35:48;;;;;;;1999.90;999.90;;;;;;;;;;6669944;89;20251;-78
2023/07/31 18:45:49;;;;;;;1999.90;999.90;;;;;;;;;;6674974;88;20325;-78
2023/07/31 18:55:50;;;;;;;1999.90;999.90;;;;;;;;;;6673534;89;20176;-78
2023/07/31 19:05:51;;;;;;;1999.90;999.90;;;;;;;;;;6684097;89;20526;-78
2023/07/31 19:15:53;;;;;;;1999.90;999.90;;;;;;;;;;6675453;89;20620;-78
2023/07/31 19:25:54;;;;;;;1999.90;999.90;;;;;;;;;;6673889;89;20192;-79
2023/07/31 19:35:57;;;;;;;1999.90;999.90;;;;;;;;;;6669073;89;20315;-77
2023/07/31 19:45:58;;;;;;;1999.90;999.90;;;;;;;;;;6663663;89;20240;-77
2023/07/31 19:56:00;;;;;;;1999.90;999.90;;;;;;;;;;6665966;89;20661;-78
2023/07/31 20:06:01;;;;;;;1999.90;999.90;;;;;;;;;;6665742;88;20714;-77
2023/07/31 20:16:02;;;;;;;1999.90;999.90;;;;;;;;;;6676307;88;20194;-78
2023/07/31 20:26:03;;;;;;;1999.90;999.90;;;;;;;;;;6665448;89;20238;-78
2023/07/31 20:36:05;;;;;;;1999.90;999.90;;;;;;;;;;6667058;88;20243;-78
2023/07/31 20:46:06;;;;;;;1999.90;999.90;;;;;;;;;;6668635;88;20255;-77
2023/07/31 20:56:07;;;;;;;1999.90;999.90;;;;;;;;;;6663997;89;20194;-78
2023/07/31 21:06:08;;;;;;;1999.90;999.90;;;;;;;;;;6664609;89;20775;-77
2023/07/31 21:16:09;;;;;;;1999.90;999.90;;;;;;;;;;6665286;89;20252;-78
2023/07/31 21:26:10;;;;;;;1999.90;999.90;;;;;;;;;;6663410;89;20711;-77
2023/07/31 21:36:11;;;;;;;1999.90;999.90;;;;;;;;;;6665000;89;20202;-77
2023/07/31 21:46:13;;;;;;;1999.90;999.90;;;;;;;;;;6668384;89;20229;-77
2023/07/31 21:56:14;;;;;;;1999.90;999.90;;;;;;;;;;6667723;89;20194;-77
2023/07/31 22:06:15;;;;;;;1999.90;999.90;;;;;;;;;;6677394;88;20208;-77
2023/07/31 22:16:17;;;;;;;1999.90;999.90;;;;;;;;;;6659191;89;20183;-78
2023/07/31 22:26:18;;;;;;;1999.90;999.90;;;;;;;;;;6671215;89;20305;-77
2023/07/31 22:36:19;;;;;;;1999.90;999.90;;;;;;;;;;6663331;89;20207;-78
2023/07/31 22:46:20;;;;;;;1999.90;999.90;;;;;;;;;;6674042;89;20224;-77
2023/07/31 22:56:21;;;;;;;1999.90;999.90;;;;;;;;;;6662349;89;20340;-78
2023/07/31 23:06:22;;;;;;;1999.90;999.90;;;;;;;;;;6661813;89;20638;-78
2023/07/31 23:16:23;;;;;;;1999.90;999.90;;;;;;;;;;6672734;89;20656;-79
2023/07/31 23:26:24;;;;;;;1999.90;999.90;;;;;;;;;;6677088;89;20651;-80
2023/07/31 23:36:25;;;;;;;1999.90;999.90;;;;;;;;;;6675078;88;20221;-77
2023/07/31 23:46:26;;;;;;;1999.90;999.90;;;;;;;;;;6680332;88;20171;-79
2023/07/31 23:56:27;;;;;;;1999.90;999.90;;;;;;;;;;6677512;88;20212;-78
